Salina, Pennsylvania
Current Conditions -  °F | °C
As of 5:50 PM on Saturday 22 Nov 2014 (Local Time) from KLBE Reporting Station
Overcast Overcast  
Wind Chill: 41°   Ceiling: 6000
Heat Index: 45°   Visibility: 10mi
Dew Point: 28°   Wind: 7mph
Humidity: 53%   Direction: 200°SSW
Pressure: 30.17"   Gusts: NA
Location:  40.52°N, 79.5°W
Report Text: KLBE 222250Z 20006KT 10SM OVC060 07/M02 A3017
Loading
Personal Weather Stations






























Interactive Weather Map New forecast layout! Learn more

10-Day Weather Forecast

Advertisements
Track Severe Weather on mobile